Time;durP1;ratioP1;P1;durP2;ratioP2;P2;SDS_P1;SDS_P2;PMS_P1;PMS_P2;Temp;Humidity;BMP_temperature;BMP_pressure;BME280_temperature;BME280_humidity;BME280_pressure;Samples;Min_cycle;Max_cycle;Signal;HPM_P1;HPM_P2
2023/08/27 00:00:13;;;;;;;0.00;0.00;;;;;;;;;;1047667;28;20605;-74
2023/08/27 00:00:44;;;;;;;0.38;0.38;;;;;;;;;;1048113;28;20027;-74
2023/08/27 00:01:14;;;;;;;0.22;0.22;;;;;;;;;;1047660;28;20040;-75
2023/08/27 00:01:44;;;;;;;0.38;0.25;;;;;;;;;;1043552;28;20025;-74
2023/08/27 00:02:15;;;;;;;1.73;1.25;;;;;;;;;;1044237;28;20029;-74
2023/08/27 00:02:45;;;;;;;0.00;0.00;;;;;;;;;;1044148;28;20112;-74
2023/08/27 00:03:16;;;;;;;8.75;1.65;;;;;;;;;;1044271;28;20039;-74
2023/08/27 00:03:46;;;;;;;0.60;0.45;;;;;;;;;;1044161;28;20032;-74
2023/08/27 00:04:16;;;;;;;1.95;0.90;;;;;;;;;;1047851;28;20024;-74
2023/08/27 00:04:47;;;;;;;0.00;0.00;;;;;;;;;;1048097;28;20025;-74
2023/08/27 00:05:17;;;;;;;0.20;0.20;;;;;;;;;;1043883;28;20078;-74
2023/08/27 00:05:48;;;;;;;0.17;0.17;;;;;;;;;;1043727;28;20067;-75
2023/08/27 00:06:18;;;;;;;1.58;1.48;;;;;;;;;;1042428;28;20078;-75
2023/08/27 00:06:49;;;;;;;0.73;0.70;;;;;;;;;;1039883;28;20065;-74
2023/08/27 00:07:19;;;;;;;0.65;0.43;;;;;;;;;;1039602;28;20124;-75
2023/08/27 00:07:50;;;;;;;0.73;0.73;;;;;;;;;;1039792;28;20436;-74
2023/08/27 00:08:20;;;;;;;0.20;0.20;;;;;;;;;;1040105;28;20032;-74
2023/08/27 00:08:51;;;;;;;0.30;0.30;;;;;;;;;;1040105;28;20033;-74
2023/08/27 00:09:21;;;;;;;4.20;2.42;;;;;;;;;;1039989;28;20091;-74
2023/08/27 00:09:51;;;;;;;0.43;0.43;;;;;;;;;;1039972;28;20024;-75
2023/08/27 00:10:22;;;;;;;0.35;0.35;;;;;;;;;;1040267;28;20560;-74
2023/08/27 00:10:59;;;;;;;0.63;0.63;;;;;;;;;;1040649;28;20021;-74
2023/08/27 00:11:29;;;;;;;0.30;0.30;;;;;;;;;;1042741;28;20402;-74
2023/08/27 00:12:00;;;;;;;0.45;0.45;;;;;;;;;;1041420;28;20121;-74
2023/08/27 00:12:30;;;;;;;0.25;0.25;;;;;;;;;;1044251;28;20128;-75
2023/08/27 00:13:01;;;;;;;0.40;0.40;;;;;;;;;;1044347;28;20833;-74
2023/08/27 00:13:31;;;;;;;5.03;0.73;;;;;;;;;;1042809;28;20025;-74
2023/08/27 00:14:03;;;;;;;0.05;0.05;;;;;;;;;;1040421;28;20490;-74
2023/08/27 00:14:33;;;;;;;0.00;0.00;;;;;;;;;;1041141;28;20033;-74
2023/08/27 00:15:04;;;;;;;0.47;0.47;;;;;;;;;;1044052;28;20037;-75
2023/08/27 00:15:35;;;;;;;0.32;0.32;;;;;;;;;;1044668;28;20031;-74
2023/08/27 00:16:06;;;;;;;2.42;1.08;;;;;;;;;;1041782;28;20024;-74
2023/08/27 00:16:36;;;;;;;0.30;0.30;;;;;;;;;;1043675;28;20067;-74
2023/08/27 00:17:06;;;;;;;0.20;0.20;;;;;;;;;;1044909;28;20031;-74
2023/08/27 00:17:37;;;;;;;2.28;1.20;;;;;;;;;;1045026;28;20036;-75
2023/08/27 00:18:07;;;;;;;0.05;0.05;;;;;;;;;;1044920;28;20017;-75
2023/08/27 00:18:38;;;;;;;0.10;0.05;;;;;;;;;;1044918;28;20028;-75
2023/08/27 00:19:08;;;;;;;0.20;0.20;;;;;;;;;;1044542;28;20017;-74
2023/08/27 00:19:39;;;;;;;0.10;0.10;;;;;;;;;;1041882;28;20029;-74
2023/08/27 00:20:10;;;;;;;1.10;1.02;;;;;;;;;;1040680;28;20025;-75
2023/08/27 00:20:41;;;;;;;0.08;0.08;;;;;;;;;;1042537;28;20029;-74
2023/08/27 00:21:11;;;;;;;0.88;0.38;;;;;;;;;;1044756;28;20112;-74
2023/08/27 00:21:42;;;;;;;0.00;0.00;;;;;;;;;;1048761;28;20036;-74
2023/08/27 00:22:12;;;;;;;0.30;0.30;;;;;;;;;;1048923;28;20062;-74
2023/08/27 00:22:43;;;;;;;1.98;0.70;;;;;;;;;;1044500;28;20396;-75
2023/08/27 00:23:13;;;;;;;0.55;0.55;;;;;;;;;;1044729;28;20040;-74
2023/08/27 00:23:44;;;;;;;1.85;1.40;;;;;;;;;;1044555;28;20040;-74
2023/08/27 00:24:14;;;;;;;0.08;0.08;;;;;;;;;;1044025;28;20393;-74
2023/08/27 00:24:45;;;;;;;0.10;0.10;;;;;;;;;;1044817;28;20025;-73
2023/08/27 00:25:16;;;;;;;0.00;0.00;;;;;;;;;;1044302;28;20111;-74
2023/08/27 00:25:47;;;;;;;0.10;0.10;;;;;;;;;;1044161;28;20021;-74
2023/08/27 00:26:17;;;;;;;1.60;1.45;;;;;;;;;;1044695;28;20021;-74
2023/08/27 00:26:48;;;;;;;0.05;0.05;;;;;;;;;;1044690;28;20032;-74
2023/08/27 00:27:18;;;;;;;0.00;0.00;;;;;;;;;;1044644;28;20115;-74
2023/08/27 00:27:48;;;;;;;1.05;0.88;;;;;;;;;;1040363;28;20557;-74
2023/08/27 00:28:19;;;;;;;1.10;0.80;;;;;;;;;;1040598;28;20022;-74
2023/08/27 00:28:49;;;;;;;0.70;0.70;;;;;;;;;;1040650;28;20067;-74
2023/08/27 00:29:20;;;;;;;0.40;0.32;;;;;;;;;;1040509;28;20358;-74
2023/08/27 00:29:50;;;;;;;0.15;0.15;;;;;;;;;;1040807;28;20029;-74
2023/08/27 00:30:21;;;;;;;0.55;0.55;;;;;;;;;;1042055;28;20028;-74
2023/08/27 00:30:59;;;;;;;0.47;0.47;;;;;;;;;;1044956;28;20457;-74
2023/08/27 00:31:29;;;;;;;0.43;0.43;;;;;;;;;;1044795;28;20025;-74
2023/08/27 00:31:59;;;;;;;10.32;1.40;;;;;;;;;;1044479;28;20017;-74
2023/08/27 00:32:33;;;;;;;0.93;0.93;;;;;;;;;;1044821;28;20033;-74
2023/08/27 00:33:03;;;;;;;0.10;0.10;;;;;;;;;;1048680;28;20016;-74
2023/08/27 00:33:34;;;;;;;0.00;0.00;;;;;;;;;;1048935;28;20036;-74
2023/08/27 00:34:04;;;;;;;0.20;0.15;;;;;;;;;;1048446;28;20451;-74
2023/08/27 00:34:35;;;;;;;3.65;3.35;;;;;;;;;;1048512;28;20412;-75
2023/08/27 00:35:05;;;;;;;0.73;0.73;;;;;;;;;;1044618;28;20398;-74
2023/08/27 00:35:36;;;;;;;0.08;0.00;;;;;;;;;;1044705;28;20043;-74
2023/08/27 00:36:06;;;;;;;3.30;1.02;;;;;;;;;;1044772;28;20035;-74
2023/08/27 00:36:37;;;;;;;0.22;0.22;;;;;;;;;;1048521;28;20107;-74
2023/08/27 00:37:07;;;;;;;2.17;0.38;;;;;;;;;;1048406;28;20047;-74
2023/08/27 00:37:38;;;;;;;1.67;0.45;;;;;;;;;;1048135;28;20025;-75
2023/08/27 00:38:08;;;;;;;0.20;0.20;;;;;;;;;;1048654;28;20024;-74
2023/08/27 00:38:39;;;;;;;1.45;1.08;;;;;;;;;;1045040;28;20033;-74
2023/08/27 00:39:09;;;;;;;0.10;0.10;;;;;;;;;;1044840;28;20025;-74
2023/08/27 00:39:40;;;;;;;0.00;0.00;;;;;;;;;;1047852;28;20030;-74
2023/08/27 00:40:10;;;;;;;0.00;0.00;;;;;;;;;;1044619;28;20135;-74
2023/08/27 00:40:41;;;;;;;0.52;0.47;;;;;;;;;;1044691;28;20496;-75
2023/08/27 00:41:11;;;;;;;1.08;1.00;;;;;;;;;;1044504;28;20087;-74
2023/08/27 00:41:42;;;;;;;0.65;0.65;;;;;;;;;;1040876;28;20473;-74
2023/08/27 00:42:12;;;;;;;0.65;0.28;;;;;;;;;;1044420;28;20056;-74
2023/08/27 00:42:43;;;;;;;0.15;0.15;;;;;;;;;;1044470;28;20116;-74
2023/08/27 00:43:13;;;;;;;0.47;0.47;;;;;;;;;;1044723;28;20033;-74
2023/08/27 00:43:43;;;;;;;0.00;0.00;;;;;;;;;;1044396;28;20031;-74
2023/08/27 00:44:14;;;;;;;0.10;0.08;;;;;;;;;;1040683;28;20025;-74
2023/08/27 00:44:45;;;;;;;0.10;0.10;;;;;;;;;;1040450;28;20029;-74
2023/08/27 00:45:15;;;;;;;0.03;0.03;;;;;;;;;;1040611;28;20025;-74
2023/08/27 00:45:46;;;;;;;0.00;0.00;;;;;;;;;;1040541;28;20025;-75
2023/08/27 00:46:17;;;;;;;0.50;0.50;;;;;;;;;;1040433;28;20026;-75
2023/08/27 00:46:48;;;;;;;0.80;0.30;;;;;;;;;;1040860;28;20550;-75
2023/08/27 00:47:18;;;;;;;0.00;0.00;;;;;;;;;;1040841;28;20168;-74
2023/08/27 00:47:49;;;;;;;0.35;0.35;;;;;;;;;;1044470;28;20040;-74
2023/08/27 00:48:19;;;;;;;0.00;0.00;;;;;;;;;;1044563;28;20109;-74
2023/08/27 00:48:50;;;;;;;2.28;2.05;;;;;;;;;;1044542;28;20056;-74
2023/08/27 00:49:21;;;;;;;0.45;0.32;;;;;;;;;;1044257;28;20025;-75
2023/08/27 00:49:51;;;;;;;0.13;0.13;;;;;;;;;;1040458;28;20033;-75
2023/08/27 00:50:22;;;;;;;0.13;0.13;;;;;;;;;;1044404;28;20029;-74
2023/08/27 00:50:52;;;;;;;0.10;0.10;;;;;;;;;;1044541;28;20517;-75
2023/08/27 00:51:23;;;;;;;0.70;0.70;;;;;;;;;;1044621;28;20401;-75
2023/08/27 00:51:53;;;;;;;0.55;0.55;;;;;;;;;;1040503;28;20488;-74
2023/08/27 00:52:24;;;;;;;0.00;0.00;;;;;;;;;;1044459;28;20083;-75
2023/08/27 00:52:54;;;;;;;0.00;0.00;;;;;;;;;;1044586;28;20388;-74
2023/08/27 00:53:25;;;;;;;0.00;0.00;;;;;;;;;;1044647;28;20059;-74
2023/08/27 00:53:55;;;;;;;0.28;0.22;;;;;;;;;;1048681;28;20508;-74
2023/08/27 00:54:26;;;;;;;0.10;0.10;;;;;;;;;;1048694;28;20033;-74
2023/08/27 00:54:59;;;;;;;0.35;0.35;;;;;;;;;;1046248;28;20031;-75
2023/08/27 00:55:29;;;;;;;19.10;1.80;;;;;;;;;;1040634;28;20022;-74
2023/08/27 00:56:00;;;;;;;0.03;0.03;;;;;;;;;;1045407;28;20017;-74
2023/08/27 00:56:31;;;;;;;1.65;0.90;;;;;;;;;;1048811;28;20029;-74
2023/08/27 00:57:05;;;;;;;1.45;1.00;;;;;;;;;;1048679;28;20038;-74
2023/08/27 00:57:39;;;;;;;0.65;0.50;;;;;;;;;;1047345;28;20544;-74
2023/08/27 00:58:09;;;;;;;0.05;0.05;;;;;;;;;;1044738;28;20112;-74
2023/08/27 00:58:40;;;;;;;0.35;0.35;;;;;;;;;;1044992;28;20025;-74
2023/08/27 00:59:11;;;;;;;0.30;0.30;;;;;;;;;;1048387;28;20028;-74
2023/08/27 00:59:41;;;;;;;0.70;0.40;;;;;;;;;;1048661;28;20719;-74
2023/08/27 01:00:12;;;;;;;0.17;0.10;;;;;;;;;;1048438;28;20028;-75
2023/08/27 01:00:43;;;;;;;0.25;0.20;;;;;;;;;;1047946;28;20092;-74
2023/08/27 01:01:14;;;;;;;1.33;1.23;;;;;;;;;;1040642;28;20065;-74
2023/08/27 01:01:44;;;;;;;0.50;0.50;;;;;;;;;;1040108;28;20075;-75
2023/08/27 01:02:18;;;;;;;1.75;1.55;;;;;;;;;;1047089;28;20020;-75
2023/08/27 01:02:48;;;;;;;3.40;0.20;;;;;;;;;;1048748;28;20086;-74
2023/08/27 01:03:18;;;;;;;0.10;0.10;;;;;;;;;;1044460;28;20094;-74
2023/08/27 01:03:50;;;;;;;0.13;0.13;;;;;;;;;;1044705;28;20121;-75
2023/08/27 01:04:20;;;;;;;0.43;0.43;;;;;;;;;;1044370;28;20536;-75
2023/08/27 01:04:51;;;;;;;0.10;0.10;;;;;;;;;;1043930;28;20437;-75
2023/08/27 01:05:24;;;;;;;1.85;0.75;;;;;;;;;;1040823;28;20037;-74
2023/08/27 01:05:54;;;;;;;0.10;0.10;;;;;;;;;;1040589;28;20029;-74
2023/08/27 01:06:25;;;;;;;0.20;0.20;;;;;;;;;;1040739;28;20030;-74
2023/08/27 01:06:57;;;;;;;0.00;0.00;;;;;;;;;;1041102;28;20030;-75
2023/08/27 01:07:40;;;;;;;2.38;2.25;;;;;;;;;;1044826;28;20546;-74
2023/08/27 01:08:17;;;;;;;1.50;0.70;;;;;;;;;;1044377;28;20102;-74
2023/08/27 01:08:52;;;;;;;1.85;0.90;;;;;;;;;;1044674;28;20032;-75
2023/08/27 01:09:28;;;;;;;0.55;0.55;;;;;;;;;;1044747;28;20033;-75
2023/08/27 01:10:21;;;;;;;2.40;1.10;;;;;;;;;;1057935;23;20009;-21
2023/08/27 01:10:55;;;;;;;0.82;0.82;;;;;;;;;;1044427;28;20059;-20
2023/08/27 01:11:28;;;;;;;2.53;1.83;;;;;;;;;;1044916;28;20036;-20
2023/08/27 01:12:13;;;;;;;0.00;0.00;;;;;;;;;;1044526;28;20024;-22
2023/08/27 01:12:51;;;;;;;0.68;0.38;;;;;;;;;;1044691;28;20544;-20
2023/08/27 01:13:42;;;;;;;0.00;0.00;;;;;;;;;;1044248;28;20037;-21
2023/08/27 01:14:14;;;;;;;1.20;1.17;;;;;;;;;;1044052;28;20131;-20
2023/08/27 01:14:47;;;;;;;1.38;1.27;;;;;;;;;;1044402;28;20020;-22
2023/08/27 01:15:18;;;;;;;0.00;0.00;;;;;;;;;;1044853;28;20029;-21
2023/08/27 01:15:54;;;;;;;0.10;0.10;;;;;;;;;;1044613;28;20150;-21
2023/08/27 01:16:26;;;;;;;0.82;0.80;;;;;;;;;;1044770;28;20111;-21
2023/08/27 01:16:58;;;;;;;0.82;0.35;;;;;;;;;;1044717;28;20033;-21
2023/08/27 01:17:29;;;;;;;0.63;0.20;;;;;;;;;;1044842;28;20028;-20
2023/08/27 01:18:00;;;;;;;0.32;0.32;;;;;;;;;;1044752;28;20071;-21
2023/08/27 01:18:31;;;;;;;0.25;0.22;;;;;;;;;;1044546;28;20074;-20
2023/08/27 01:19:03;;;;;;;13.68;1.65;;;;;;;;;;1044716;28;20043;-21
2023/08/27 01:19:34;;;;;;;1.00;0.85;;;;;;;;;;1041207;28;20016;-21
2023/08/27 01:20:05;;;;;;;1.90;1.02;;;;;;;;;;1040202;28;20030;-20
2023/08/27 01:20:35;;;;;;;1.63;1.02;;;;;;;;;;1041184;28;20033;-21
2023/08/27 01:21:19;;;;;;;0.03;0.03;;;;;;;;;;1044289;28;20119;-21
2023/08/27 01:21:49;;;;;;;0.30;0.30;;;;;;;;;;1044857;28;20021;-22
2023/08/27 01:22:20;;;;;;;0.15;0.08;;;;;;;;;;1044823;28;20029;-21
2023/08/27 01:22:50;;;;;;;3.83;1.83;;;;;;;;;;1044611;28;20030;-22
2023/08/27 01:23:20;;;;;;;0.00;0.00;;;;;;;;;;1044085;28;20033;-19
2023/08/27 01:23:51;;;;;;;0.52;0.52;;;;;;;;;;1040671;28;20036;-21
2023/08/27 01:24:22;;;;;;;0.60;0.50;;;;;;;;;;1040539;28;20480;-20
2023/08/27 01:24:52;;;;;;;0.77;0.73;;;;;;;;;;1040648;28;20080;-20
2023/08/27 01:25:27;;;;;;;0.60;0.05;;;;;;;;;;1040350;28;20072;-21
2023/08/27 01:26:00;;;;;;;0.00;0.00;;;;;;;;;;1040343;28;20031;-20
2023/08/27 01:26:33;;;;;;;0.75;0.60;;;;;;;;;;1040013;28;20037;-20
2023/08/27 01:27:04;;;;;;;0.38;0.38;;;;;;;;;;1040608;28;20025;-21
2023/08/27 01:27:38;;;;;;;0.20;0.20;;;;;;;;;;1044381;28;20048;-20
2023/08/27 01:28:16;;;;;;;0.63;0.63;;;;;;;;;;1044423;28;20484;-21
2023/08/27 01:28:51;;;;;;;0.10;0.10;;;;;;;;;;1044372;28;20478;-20
2023/08/27 01:29:26;;;;;;;0.10;0.10;;;;;;;;;;1042286;28;20032;-20
2023/08/27 01:30:20;;;;;;;0.00;0.00;;;;;;;;;;1040532;28;20021;-21
2023/08/27 01:31:03;;;;;;;0.00;0.00;;;;;;;;;;1040417;28;20021;-21
2023/08/27 01:31:38;;;;;;;0.00;0.00;;;;;;;;;;1043394;28;20565;-21
2023/08/27 01:32:15;;;;;;;0.10;0.10;;;;;;;;;;1044358;28;20372;-21
2023/08/27 01:32:49;;;;;;;0.08;0.08;;;;;;;;;;1044277;28;20083;-20
2023/08/27 01:33:21;;;;;;;3.92;1.10;;;;;;;;;;1044775;28;20056;-21
2023/08/27 01:33:55;;;;;;;1.27;0.82;;;;;;;;;;1044750;28;20021;-21
2023/08/27 01:34:26;;;;;;;0.95;0.65;;;;;;;;;;1048311;28;20070;-20
2023/08/27 01:34:56;;;;;;;0.00;0.00;;;;;;;;;;1048490;28;20154;-20
2023/08/27 01:35:27;;;;;;;0.25;0.25;;;;;;;;;;1048629;28;20032;-21
2023/08/27 01:35:58;;;;;;;0.00;0.00;;;;;;;;;;1048051;28;20372;-20
2023/08/27 01:36:29;;;;;;;1.33;1.30;;;;;;;;;;1042679;28;20086;-21
2023/08/27 01:37:00;;;;;;;0.35;0.35;;;;;;;;;;1040579;28;20125;-22
2023/08/27 01:37:31;;;;;;;0.43;0.30;;;;;;;;;;1040252;28;20036;-21
2023/08/27 01:38:01;;;;;;;1.15;1.00;;;;;;;;;;1040236;28;20037;-21
2023/08/27 01:38:32;;;;;;;11.50;1.13;;;;;;;;;;1041765;28;20045;-21
2023/08/27 01:39:04;;;;;;;0.13;0.13;;;;;;;;;;1044613;28;20063;-21
2023/08/27 01:39:34;;;;;;;0.00;0.00;;;;;;;;;;1044627;28;20110;-21
2023/08/27 01:40:05;;;;;;;0.57;0.35;;;;;;;;;;1039924;28;20526;-22
2023/08/27 01:40:37;;;;;;;0.32;0.32;;;;;;;;;;1040339;28;20060;-20
2023/08/27 01:41:07;;;;;;;1.13;1.02;;;;;;;;;;1040378;28;20506;-20
2023/08/27 01:41:38;;;;;;;0.82;0.80;;;;;;;;;;1043496;28;20025;-22
2023/08/27 01:42:08;;;;;;;0.00;0.00;;;;;;;;;;1044667;28;20036;-20
2023/08/27 01:42:39;;;;;;;2.45;0.88;;;;;;;;;;1044539;28;20028;-22
2023/08/27 01:43:09;;;;;;;0.00;0.00;;;;;;;;;;1044630;28;20025;-21
2023/08/27 01:43:40;;;;;;;0.65;0.63;;;;;;;;;;1040532;28;20029;-21
2023/08/27 01:44:10;;;;;;;0.20;0.20;;;;;;;;;;1040161;28;20025;-22
2023/08/27 01:44:41;;;;;;;0.00;0.00;;;;;;;;;;1040291;28;20048;-20
2023/08/27 01:45:12;;;;;;;0.43;0.35;;;;;;;;;;1040636;28;20445;-21
2023/08/27 01:45:42;;;;;;;0.32;0.28;;;;;;;;;;1040535;28;20115;-22
2023/08/27 01:46:13;;;;;;;0.43;0.35;;;;;;;;;;1040539;28;20018;-21
2023/08/27 01:46:43;;;;;;;0.00;0.00;;;;;;;;;;1040369;28;20492;-20
2023/08/27 01:47:14;;;;;;;0.00;0.00;;;;;;;;;;1040514;28;20456;-20
2023/08/27 01:47:44;;;;;;;0.75;0.17;;;;;;;;;;1040506;28;20022;-21
2023/08/27 01:48:15;;;;;;;0.17;0.17;;;;;;;;;;1040658;28;20025;-22
2023/08/27 01:48:46;;;;;;;0.10;0.10;;;;;;;;;;1040552;28;20061;-22
2023/08/27 01:49:16;;;;;;;0.63;0.17;;;;;;;;;;1040899;28;20428;-20
2023/08/27 01:49:48;;;;;;;0.05;0.05;;;;;;;;;;1044608;28;20123;-20
2023/08/27 01:50:19;;;;;;;0.00;0.00;;;;;;;;;;1044600;28;20392;-22
2023/08/27 01:50:49;;;;;;;0.03;0.00;;;;;;;;;;1044241;28;20056;-22
2023/08/27 01:51:19;;;;;;;0.32;0.30;;;;;;;;;;1044682;28;20017;-20
2023/08/27 01:51:50;;;;;;;5.47;0.30;;;;;;;;;;1044727;28;20029;-21
2023/08/27 01:52:20;;;;;;;0.00;0.00;;;;;;;;;;1044693;28;20023;-21
2023/08/27 01:52:51;;;;;;;0.15;0.10;;;;;;;;;;1044471;28;20036;-21
2023/08/27 01:53:21;;;;;;;0.00;0.00;;;;;;;;;;1044646;28;20029;-22
2023/08/27 01:53:52;;;;;;;1.35;0.85;;;;;;;;;;1044790;28;20115;-20
2023/08/27 01:54:22;;;;;;;0.00;0.00;;;;;;;;;;1043202;28;20029;-21
2023/08/27 01:54:52;;;;;;;1.17;1.08;;;;;;;;;;1040556;28;20033;-20
2023/08/27 01:55:23;;;;;;;0.00;0.00;;;;;;;;;;1040228;28;20056;-21
2023/08/27 01:55:53;;;;;;;1.52;0.55;;;;;;;;;;1040010;28;20029;-21
2023/08/27 01:56:24;;;;;;;11.98;1.23;;;;;;;;;;1040836;28;20369;-21
2023/08/27 01:56:55;;;;;;;0.00;0.00;;;;;;;;;;1044650;28;20024;-20
2023/08/27 01:57:25;;;;;;;1.98;0.82;;;;;;;;;;1044642;28;20111;-22
2023/08/27 01:57:55;;;;;;;0.00;0.00;;;;;;;;;;1044641;28;20033;-21
2023/08/27 01:58:26;;;;;;;0.90;0.73;;;;;;;;;;1044686;28;20029;-22
2023/08/27 01:58:56;;;;;;;0.00;0.00;;;;;;;;;;1044142;28;20396;-20
2023/08/27 01:59:27;;;;;;;0.10;0.10;;;;;;;;;;1042804;28;20103;-20
2023/08/27 01:59:57;;;;;;;0.00;0.00;;;;;;;;;;1040196;28;20040;-21
2023/08/27 02:00:28;;;;;;;1.17;1.08;;;;;;;;;;1040227;28;20531;-20
2023/08/27 02:00:59;;;;;;;0.00;0.00;;;;;;;;;;1040215;28;20029;-22
2023/08/27 02:01:29;;;;;;;0.88;0.57;;;;;;;;;;1040280;28;20064;-21
2023/08/27 02:02:00;;;;;;;0.20;0.20;;;;;;;;;;1040175;28;20576;-21
2023/08/27 02:02:30;;;;;;;0.75;0.75;;;;;;;;;;1041430;28;20063;-20
2023/08/27 02:03:01;;;;;;;0.32;0.32;;;;;;;;;;1044513;28;20048;-22
2023/08/27 02:03:32;;;;;;;0.45;0.45;;;;;;;;;;1044774;28;20815;-20
2023/08/27 02:04:03;;;;;;;0.77;0.77;;;;;;;;;;1044507;28;20029;-21
2023/08/27 02:04:34;;;;;;;0.57;0.30;;;;;;;;;;1044602;28;20032;-21
2023/08/27 02:05:05;;;;;;;0.20;0.03;;;;;;;;;;1044486;28;20120;-21
2023/08/27 02:05:36;;;;;;;0.10;0.10;;;;;;;;;;1044795;28;20104;-22
2023/08/27 02:06:06;;;;;;;0.00;0.00;;;;;;;;;;1044473;28;20028;-20
2023/08/27 02:06:36;;;;;;;0.43;0.40;;;;;;;;;;1044579;28;20029;-21
2023/08/27 02:07:08;;;;;;;0.90;0.82;;;;;;;;;;1044567;28;20473;-21
2023/08/27 02:07:39;;;;;;;0.55;0.52;;;;;;;;;;1043920;28;20032;-21
2023/08/27 02:08:09;;;;;;;1.17;1.08;;;;;;;;;;1044208;28;20556;-22
2023/08/27 02:08:40;;;;;;;0.60;0.60;;;;;;;;;;1041440;28;20026;-20
2023/08/27 02:09:10;;;;;;;0.52;0.52;;;;;;;;;;1040291;28;20116;-21
2023/08/27 02:09:41;;;;;;;0.00;0.00;;;;;;;;;;1044183;28;20020;-20
2023/08/27 02:10:11;;;;;;;0.73;0.73;;;;;;;;;;1044115;28;20119;-21
2023/08/27 02:10:42;;;;;;;0.10;0.10;;;;;;;;;;1044209;28;20048;-20
2023/08/27 02:11:12;;;;;;;2.25;0.75;;;;;;;;;;1047065;28;20033;-21
2023/08/27 02:11:43;;;;;;;0.10;0.10;;;;;;;;;;1044668;28;20033;-22
2023/08/27 02:12:13;;;;;;;0.20;0.20;;;;;;;;;;1044327;28;20086;-22
2023/08/27 02:12:43;;;;;;;0.63;0.47;;;;;;;;;;1044465;28;20476;-20
2023/08/27 02:13:14;;;;;;;0.73;0.13;;;;;;;;;;1043684;28;20543;-22
2023/08/27 02:13:44;;;;;;;0.15;0.10;;;;;;;;;;1040468;28;20473;-21
2023/08/27 02:14:15;;;;;;;0.00;0.00;;;;;;;;;;1040117;28;20484;-20
2023/08/27 02:14:45;;;;;;;0.00;0.00;;;;;;;;;;1043602;28;20046;-20
2023/08/27 02:15:16;;;;;;;0.22;0.20;;;;;;;;;;1044540;28;20047;-21
2023/08/27 02:15:46;;;;;;;0.55;0.28;;;;;;;;;;1044056;28;20477;-21
2023/08/27 02:16:17;;;;;;;0.50;0.32;;;;;;;;;;1040438;28;20420;-20
2023/08/27 02:16:47;;;;;;;0.40;0.40;;;;;;;;;;1040438;28;20026;-19
2023/08/27 02:17:18;;;;;;;0.17;0.17;;;;;;;;;;1040524;28;20035;-21
2023/08/27 02:17:48;;;;;;;4.65;1.00;;;;;;;;;;1040264;28;20033;-21
2023/08/27 02:18:18;;;;;;;0.10;0.10;;;;;;;;;;1040492;28;20393;-20
2023/08/27 02:18:49;;;;;;;0.10;0.03;;;;;;;;;;1040395;28;20444;-21
2023/08/27 02:19:20;;;;;;;0.47;0.47;;;;;;;;;;1040916;28;20033;-20
2023/08/27 02:19:50;;;;;;;0.70;0.57;;;;;;;;;;1044469;28;20067;-21
2023/08/27 02:20:21;;;;;;;1.30;0.93;;;;;;;;;;1043735;28;20021;-21
2023/08/27 02:20:52;;;;;;;0.22;0.22;;;;;;;;;;1042912;28;20503;-21
2023/08/27 02:21:22;;;;;;;0.98;0.85;;;;;;;;;;1044584;28;20028;-20
2023/08/27 02:21:53;;;;;;;1.05;0.98;;;;;;;;;;1044640;28;20115;-20
2023/08/27 02:22:23;;;;;;;0.25;0.22;;;;;;;;;;1044489;28;20035;-21
2023/08/27 02:22:54;;;;;;;1.55;1.35;;;;;;;;;;1043500;28;20032;-20
2023/08/27 02:23:24;;;;;;;1.08;0.95;;;;;;;;;;1044680;28;20029;-22
2023/08/27 02:23:55;;;;;;;0.10;0.10;;;;;;;;;;1044602;28;20387;-21
2023/08/27 02:24:25;;;;;;;0.95;0.95;;;;;;;;;;1042616;28;20111;-21
2023/08/27 02:24:56;;;;;;;0.08;0.08;;;;;;;;;;1040400;28;20037;-21
2023/08/27 02:25:26;;;;;;;2.08;0.55;;;;;;;;;;1040240;28;20048;-20
2023/08/27 02:25:57;;;;;;;0.00;0.00;;;;;;;;;;1039880;28;20022;-20
2023/08/27 02:26:27;;;;;;;1.98;0.60;;;;;;;;;;1040120;28;20114;-20
2023/08/27 02:26:57;;;;;;;1.95;1.02;;;;;;;;;;1040311;28;20026;-21
2023/08/27 02:27:28;;;;;;;0.00;0.00;;;;;;;;;;1040442;28;20481;-21
2023/08/27 02:27:58;;;;;;;0.20;0.20;;;;;;;;;;1040248;28;20516;-20
2023/08/27 02:28:29;;;;;;;0.17;0.17;;;;;;;;;;1040419;28;20047;-19
2023/08/27 02:28:59;;;;;;;0.08;0.08;;;;;;;;;;1040309;28;20030;-20
2023/08/27 02:29:30;;;;;;;0.28;0.28;;;;;;;;;;1042334;28;20440;-20
2023/08/27 02:30:00;;;;;;;0.13;0.13;;;;;;;;;;1044362;28;20036;-21
2023/08/27 02:30:31;;;;;;;0.17;0.17;;;;;;;;;;1044476;28;20499;-21
2023/08/27 02:31:02;;;;;;;0.77;0.77;;;;;;;;;;1044331;28;20973;-20
2023/08/27 02:31:32;;;;;;;0.63;0.47;;;;;;;;;;1041152;28;20025;-22
2023/08/27 02:32:03;;;;;;;0.35;0.35;;;;;;;;;;1040031;28;20025;-20
2023/08/27 02:32:33;;;;;;;0.38;0.38;;;;;;;;;;1041597;28;20026;-21
2023/08/27 02:33:04;;;;;;;0.70;0.22;;;;;;;;;;1043846;28;20058;-20
2023/08/27 02:33:35;;;;;;;0.32;0.20;;;;;;;;;;1044551;28;20021;-21
2023/08/27 02:34:07;;;;;;;0.00;0.00;;;;;;;;;;1044336;28;20032;-20
2023/08/27 02:34:38;;;;;;;0.73;0.52;;;;;;;;;;1044493;28;20036;-20
2023/08/27 02:35:08;;;;;;;0.20;0.20;;;;;;;;;;1044399;28;20052;-19
2023/08/27 02:35:38;;;;;;;0.00;0.00;;;;;;;;;;1044559;28;20476;-21
2023/08/27 02:36:09;;;;;;;0.10;0.10;;;;;;;;;;1044344;28;20554;-21
2023/08/27 02:36:39;;;;;;;0.57;0.40;;;;;;;;;;1044563;28;20047;-21
2023/08/27 02:37:10;;;;;;;1.55;1.10;;;;;;;;;;1044254;28;20025;-21
2023/08/27 02:37:40;;;;;;;0.30;0.30;;;;;;;;;;1044046;28;20029;-21
2023/08/27 02:38:10;;;;;;;0.55;0.35;;;;;;;;;;1044310;28;20047;-21
2023/08/27 02:38:41;;;;;;;0.20;0.10;;;;;;;;;;1044129;28;20028;-19
2023/08/27 02:39:12;;;;;;;0.08;0.08;;;;;;;;;;1044389;28;20025;-21
2023/08/27 02:39:42;;;;;;;0.00;0.00;;;;;;;;;;1044388;28;20025;-20
2023/08/27 02:40:13;;;;;;;0.15;0.15;;;;;;;;;;1044493;28;20029;-22
2023/08/27 02:40:44;;;;;;;0.57;0.57;;;;;;;;;;1044319;28;20100;-20
2023/08/27 02:41:14;;;;;;;0.10;0.10;;;;;;;;;;1044426;28;20598;-22
2023/08/27 02:41:45;;;;;;;1.45;0.40;;;;;;;;;;1044204;28;20025;-21
2023/08/27 02:42:15;;;;;;;0.50;0.22;;;;;;;;;;1043959;28;20567;-21
2023/08/27 02:42:46;;;;;;;2.30;1.13;;;;;;;;;;1043936;28;20131;-21
2023/08/27 02:43:16;;;;;;;0.28;0.28;;;;;;;;;;1042843;28;20174;-22
2023/08/27 02:43:47;;;;;;;0.73;0.73;;;;;;;;;;1040362;28;20064;-20
2023/08/27 02:44:17;;;;;;;0.50;0.50;;;;;;;;;;1039980;28;20033;-21
2023/08/27 02:44:48;;;;;;;0.00;0.00;;;;;;;;;;1039941;28;20473;-21
2023/08/27 02:45:19;;;;;;;0.10;0.10;;;;;;;;;;1040322;28;20029;-21
2023/08/27 02:45:50;;;;;;;0.43;0.35;;;;;;;;;;1040170;28;20030;-21
2023/08/27 02:46:20;;;;;;;1.00;0.40;;;;;;;;;;1040291;28;20116;-21
2023/08/27 02:46:51;;;;;;;6.68;1.27;;;;;;;;;;1040228;28;20021;-21
2023/08/27 02:47:21;;;;;;;0.68;0.52;;;;;;;;;;1041070;28;20120;-20
2023/08/27 02:47:52;;;;;;;2.60;1.73;;;;;;;;;;1044353;28;20033;-20
2023/08/27 02:48:22;;;;;;;0.10;0.10;;;;;;;;;;1044350;28;20503;-22
2023/08/27 02:48:52;;;;;;;0.35;0.35;;;;;;;;;;1044483;28;20112;-20
2023/08/27 02:49:23;;;;;;;0.45;0.38;;;;;;;;;;1042153;28;20029;-21
2023/08/27 02:49:53;;;;;;;0.35;0.30;;;;;;;;;;1040013;28;20017;-21
2023/08/27 02:50:24;;;;;;;0.00;0.00;;;;;;;;;;1040371;28;20128;-22
2023/08/27 02:50:54;;;;;;;6.55;1.65;;;;;;;;;;1044119;28;20365;-20
2023/08/27 02:51:25;;;;;;;0.90;0.17;;;;;;;;;;1044487;28;20495;-21
2023/08/27 02:51:55;;;;;;;0.38;0.38;;;;;;;;;;1044011;28;20487;-21
2023/08/27 02:52:25;;;;;;;1.65;0.32;;;;;;;;;;1044298;28;20370;-20
2023/08/27 02:52:56;;;;;;;0.05;0.05;;;;;;;;;;1044379;28;20033;-20
2023/08/27 02:53:26;;;;;;;0.10;0.10;;;;;;;;;;1044269;28;20025;-22
2023/08/27 02:53:57;;;;;;;8.52;0.50;;;;;;;;;;1044372;28;20130;-21
2023/08/27 02:54:27;;;;;;;0.25;0.25;;;;;;;;;;1044328;28;20025;-20
2023/08/27 02:54:58;;;;;;;1.30;0.52;;;;;;;;;;1044109;28;20024;-20
2023/08/27 02:55:31;;;;;;;0.22;0.22;;;;;;;;;;1043162;28;20472;-20
2023/08/27 02:56:02;;;;;;;0.00;0.00;;;;;;;;;;1043883;28;20123;-21
2023/08/27 02:56:33;;;;;;;0.68;0.35;;;;;;;;;;1041937;28;20056;-21
2023/08/27 02:57:04;;;;;;;0.73;0.73;;;;;;;;;;1040156;28;20040;-20
2023/08/27 02:57:34;;;;;;;1.20;0.85;;;;;;;;;;1040299;28;20026;-22
2023/08/27 02:58:05;;;;;;;0.88;0.63;;;;;;;;;;1040211;28;20068;-21
2023/08/27 02:58:35;;;;;;;4.97;0.35;;;;;;;;;;1040316;28;20124;-22
2023/08/27 02:59:06;;;;;;;2.67;1.35;;;;;;;;;;1040159;28;20029;-21
2023/08/27 02:59:36;;;;;;;1.85;0.95;;;;;;;;;;1040354;28;20071;-20
2023/08/27 03:00:07;;;;;;;1.45;0.98;;;;;;;;;;1040230;28;20025;-21
2023/08/27 03:00:40;;;;;;;0.63;0.45;;;;;;;;;;1043289;28;20025;-20
2023/08/27 03:01:17;;;;;;;1.73;0.80;;;;;;;;;;1043925;28;20036;-21
2023/08/27 03:01:47;;;;;;;0.73;0.50;;;;;;;;;;1040442;28;20029;-21
2023/08/27 03:02:18;;;;;;;0.00;0.00;;;;;;;;;;1040042;28;20061;-20
2023/08/27 03:02:48;;;;;;;0.60;0.60;;;;;;;;;;1043724;28;20119;-21
2023/08/27 03:03:18;;;;;;;1.05;0.63;;;;;;;;;;1044450;28;20483;-21
2023/08/27 03:03:49;;;;;;;0.05;0.00;;;;;;;;;;1044408;28;20036;-21
2023/08/27 03:04:20;;;;;;;0.20;0.20;;;;;;;;;;1044337;28;20434;-21
2023/08/27 03:04:50;;;;;;;1.90;1.40;;;;;;;;;;1044453;28;20030;-20
2023/08/27 03:05:21;;;;;;;0.22;0.22;;;;;;;;;;1043679;28;20060;-20
2023/08/27 03:05:51;;;;;;;6.05;1.17;;;;;;;;;;1043523;28;20032;-21
2023/08/27 03:06:22;;;;;;;0.30;0.30;;;;;;;;;;1044334;28;20029;-21
2023/08/27 03:06:52;;;;;;;0.90;0.30;;;;;;;;;;1044382;28;20029;-21
2023/08/27 03:07:23;;;;;;;1.75;1.20;;;;;;;;;;1042231;28;20024;-21